createdAt,value
2022-10-05T00:02:06.110Z,79.84146
2022-10-05T00:07:07.830Z,75.00076
2022-10-05T00:12:09.757Z,79.82542
2022-10-05T00:17:11.380Z,75.93116
2022-10-05T00:22:12.819Z,77.99347
2022-10-05T00:27:14.483Z,81.25145
2022-10-05T00:32:16.147Z,78.56603
2022-10-05T00:37:17.779Z,75.80288
2022-10-05T00:42:19.665Z,77.22353
2022-10-05T00:47:21.340Z,76.19376
2022-10-05T00:52:23.069Z,73.44751
2022-10-05T00:57:24.880Z,74.4531
2022-10-05T01:02:26.796Z,78.40026
2022-10-05T01:07:28.492Z,81.08076
2022-10-05T01:12:30.432Z,76.07816
2022-10-05T01:17:32.153Z,85.00725
2022-10-05T01:22:33.902Z,83.74749
2022-10-05T01:27:35.672Z,83.37673
2022-10-05T01:32:37.399Z,81.68109
2022-10-05T01:37:39.134Z,84.1447
2022-10-05T01:42:41.097Z,81.53492
2022-10-05T01:47:42.851Z,80.59522
2022-10-05T01:52:44.410Z,83.42546
2022-10-05T01:57:46.152Z,85.92587
2022-10-05T02:02:47.618Z,83.30125
2022-10-05T02:07:49.382Z,83.28858
2022-10-05T02:12:51.042Z,82.01164
2022-10-05T02:17:53.541Z,78.49731
2022-10-05T02:22:54.975Z,79.06309
2022-10-05T02:27:56.624Z,76.89006
2022-10-05T02:32:58.102Z,80.63446
2022-10-05T02:37:59.607Z,79.87543
2022-10-05T02:43:01.263Z,78.81375
2022-10-05T02:48:02.832Z,80.48574
2022-10-05T02:53:04.329Z,80.262
2022-10-05T02:58:05.972Z,85.66714
2022-10-05T03:03:07.417Z,84.41349
2022-10-05T03:08:09.186Z,87.40145
2022-10-05T03:13:10.971Z,84.56569
2022-10-05T03:18:12.481Z,83.66044
2022-10-05T03:23:13.947Z,81.57786
2022-10-05T03:28:15.673Z,84.06115
2022-10-05T03:33:17.291Z,87.95976
2022-10-05T03:38:18.734Z,90.9965
2022-10-05T03:43:20.398Z,92.36657
2022-10-05T03:48:21.919Z,94.2885
2022-10-05T03:53:23.444Z,90.20597
2022-10-05T03:58:24.891Z,89.38327
2022-10-05T04:03:26.364Z,91.00224
2022-10-05T04:08:27.826Z,88.81517
2022-10-05T04:13:29.594Z,84.80277
2022-10-05T04:18:31.069Z,83.31006
2022-10-05T04:23:32.803Z,84.16438
2022-10-05T04:28:34.687Z,83.18015
2022-10-05T04:33:36.546Z,83.14803
2022-10-05T04:38:38.341Z,81.85139
2022-10-05T04:43:40.311Z,78.35618
2022-10-05T04:48:42.087Z,77.41365
2022-10-05T04:53:43.777Z,75.22729
2022-10-05T04:58:45.287Z,74.6377
2022-10-05T05:03:46.954Z,73.24219
2022-10-05T05:08:49.106Z,71.46164
2022-10-05T05:13:50.751Z,71.08706
2022-10-05T05:18:52.206Z,70.37776
2022-10-05T05:23:53.760Z,68.43778
2022-10-05T05:28:55.232Z,68.05875
2022-10-05T05:33:56.687Z,66.94872
2022-10-05T05:38:58.239Z,66.0884
2022-10-05T05:44:00.070Z,64.02339
2022-10-05T05:49:01.920Z,64.40854
2022-10-05T05:54:03.451Z,62.44677
2022-10-05T05:59:04.885Z,60.68991
2022-10-05T06:04:06.300Z,59.22837
2022-10-05T06:09:07.758Z,58.37347
2022-10-05T06:14:09.441Z,56.90428
2022-10-05T06:19:10.914Z,56.76188
2022-10-05T06:24:12.380Z,56.04364
2022-10-05T06:29:13.934Z,56.32461
2022-10-05T06:34:15.528Z,54.94339
2022-10-05T06:39:17.099Z,52.51039
2022-10-05T06:44:18.856Z,48.86634
2022-10-05T06:49:20.335Z,46.68424
2022-10-05T06:54:21.918Z,46.82455
2022-10-05T06:59:23.474Z,44.99223
2022-10-05T07:04:24.996Z,45.33566
2022-10-05T07:09:26.527Z,46.13502
2022-10-05T07:14:28.299Z,42.22482
2022-10-05T07:19:29.802Z,42.22692
2022-10-05T07:24:31.573Z,40.66926
2022-10-05T07:29:33.333Z,41.13783
2022-10-05T07:34:35.076Z,40.90026
2022-10-05T07:39:59.261Z,37.85108
2022-10-05T07:45:01.999Z,38.4115
2022-10-05T07:50:03.624Z,38.97086
2022-10-05T07:55:05.260Z,37.38768
2022-10-05T08:00:07.044Z,36.39178
2022-10-05T08:05:08.788Z,36.68925
2022-10-05T08:10:10.543Z,36.3902
2022-10-05T08:15:13.062Z,35.88121
2022-10-05T08:20:14.771Z,34.88636
2022-10-05T08:25:16.503Z,35.39182
2022-10-05T08:30:18.369Z,34.76659
2022-10-05T08:35:20.109Z,33.21441
2022-10-05T08:40:21.841Z,32.41247
2022-10-05T08:45:23.811Z,31.95726
2022-10-05T08:50:25.552Z,32.03882
2022-10-05T08:55:27.277Z,30.69004
2022-10-05T09:00:29.406Z,31.33341
2022-10-05T09:05:31.166Z,30.74381
2022-10-05T09:10:32.977Z,28.96704
2022-10-05T09:15:35.492Z,28.52802
2022-10-05T09:20:37.280Z,28.73614
2022-10-05T09:25:39.070Z,29.13219
2022-10-05T09:30:40.968Z,29.23566
2022-10-05T09:35:42.632Z,29.1605
2022-10-05T09:40:44.353Z,29.55052
2022-10-05T09:45:46.946Z,28.25754
2022-10-05T09:50:48.429Z,28.60115
2022-10-05T09:55:49.933Z,27.39502
2022-10-05T10:00:59.435Z,27.53195
2022-10-05T10:06:10.885Z,26.93285
2022-10-05T10:11:12.380Z,26.71923
2022-10-05T10:16:14.212Z,26.39133
2022-10-05T10:21:15.732Z,25.84847
2022-10-05T10:26:17.247Z,25.73799
2022-10-05T10:31:18.925Z,27.17421
2022-10-05T10:36:20.522Z,26.51797
2022-10-05T10:41:22.021Z,25.4923
2022-10-05T10:46:23.791Z,25.01047
2022-10-05T10:51:25.326Z,24.54392
2022-10-05T10:56:26.798Z,24.26671
2022-10-05T11:01:28.329Z,23.08686
2022-10-05T11:06:29.878Z,24.07668
2022-10-05T11:11:31.551Z,23.37191
2022-10-05T11:16:34.001Z,23.73025
2022-10-05T11:21:35.541Z,23.57606
2022-10-05T11:26:36.998Z,23.99967
2022-10-05T11:31:38.565Z,22.79645
2022-10-05T11:36:40.175Z,22.70483
2022-10-05T11:41:41.793Z,23.24259
2022-10-05T11:46:43.583Z,22.97966
2022-10-05T11:51:45.479Z,22.56854
2022-10-05T11:56:50.706Z,22.39858
2022-10-05T12:01:55.396Z,22.41174
2022-10-05T12:06:56.852Z,22.60201
2022-10-05T12:11:58.449Z,22.54677
2022-10-05T12:17:00.619Z,21.93057
2022-10-05T12:22:02.110Z,22.61687
2022-10-05T12:27:03.891Z,22.07397
2022-10-05T12:32:05.687Z,22.57303
2022-10-05T12:37:07.438Z,21.91237
2022-10-05T12:42:09.177Z,22.98027
2022-10-05T12:47:11.936Z,22.42644
2022-10-05T12:52:13.840Z,22.69283
2022-10-05T12:57:15.624Z,23.13697
2022-10-05T13:02:17.531Z,23.04751
2022-10-05T13:07:19.288Z,23.54814
2022-10-05T13:12:20.968Z,23.72969
2022-10-05T13:17:22.882Z,23.85372
2022-10-05T13:22:24.597Z,24.22749
2022-10-05T13:27:26.302Z,23.47961
2022-10-05T13:32:28.036Z,23.99695
2022-10-05T13:37:29.693Z,23.90566
2022-10-05T13:42:31.331Z,23.68648
2022-10-05T13:47:34.137Z,24.22507
2022-10-05T13:52:35.884Z,24.02089
2022-10-05T13:57:37.566Z,24.15288
2022-10-05T14:02:39.258Z,23.84088
2022-10-05T14:07:41.007Z,24.5957
2022-10-05T14:12:42.642Z,23.97454
2022-10-05T14:17:44.748Z,24.21778
2022-10-05T14:22:46.168Z,24.47288
2022-10-05T14:27:47.923Z,24.24142
2022-10-05T14:32:49.580Z,24.52969
2022-10-05T14:37:51.114Z,25.2102
2022-10-05T14:42:52.718Z,25.13529
2022-10-05T14:47:54.451Z,25.64449
2022-10-05T14:52:55.962Z,25.00923
2022-10-05T14:57:57.433Z,25.25117
2022-10-05T15:02:58.969Z,25.84675
2022-10-05T15:08:00.398Z,25.44496
2022-10-05T15:13:02.064Z,26.56467
2022-10-05T15:18:04.043Z,26.21706
2022-10-05T15:23:05.684Z,26.13184
2022-10-05T15:28:07.479Z,27.00579
2022-10-05T15:33:09.367Z,27.60401
2022-10-05T15:38:11.149Z,27.67823
2022-10-05T15:43:12.883Z,28.43009
2022-10-05T15:48:15.372Z,28.82218
2022-10-05T15:53:17.093Z,28.44925
2022-10-05T15:58:18.825Z,27.78912
2022-10-05T16:03:20.653Z,28.58922
2022-10-05T16:08:22.653Z,28.89862
2022-10-05T16:13:24.628Z,28.84799
2022-10-05T16:18:27.305Z,29.28884
2022-10-05T16:23:28.936Z,28.88413
2022-10-05T16:28:30.712Z,29.58791
2022-10-05T16:33:32.519Z,29.82281
2022-10-05T16:38:34.291Z,30.55289
2022-10-05T16:43:35.821Z,30.19462
2022-10-05T16:48:37.760Z,30.3747
2022-10-05T16:53:39.521Z,29.55991
2022-10-05T16:58:41.256Z,30.11458
2022-10-05T17:03:43.169Z,30.44193
2022-10-05T17:08:45.047Z,31.23116
2022-10-05T17:13:46.774Z,31.06192
2022-10-05T17:18:48.439Z,31.51862
2022-10-05T17:23:49.923Z,31.86025
2022-10-05T17:28:51.542Z,32.28617
2022-10-05T17:33:53.157Z,31.8904
2022-10-05T17:38:54.905Z,32.86209
2022-10-05T17:43:56.637Z,32.7704
2022-10-05T17:48:58.438Z,33.09428
2022-10-05T17:53:59.935Z,32.95579
2022-10-05T17:59:01.874Z,33.31154
2022-10-05T18:04:03.684Z,33.53677
2022-10-05T18:09:05.398Z,34.40297
2022-10-05T18:14:07.134Z,33.82507
2022-10-05T18:19:08.944Z,34.56444
2022-10-05T18:24:10.690Z,34.80693
2022-10-05T18:29:12.510Z,34.78609
2022-10-05T18:34:13.980Z,34.76109
2022-10-05T18:39:15.809Z,34.61
2022-10-05T18:44:17.457Z,33.85651
2022-10-05T18:49:19.632Z,34.46285
2022-10-05T18:54:21.358Z,35.14825
2022-10-05T18:59:23.134Z,35.39482
2022-10-05T19:04:25.072Z,35.36357
2022-10-05T19:09:26.792Z,35.89944
2022-10-05T19:14:28.466Z,36.24629
2022-10-05T19:19:33.502Z,36.43313
2022-10-05T19:24:35.440Z,36.48142
2022-10-05T19:29:37.089Z,37.11043
2022-10-05T19:34:38.573Z,36.86605
2022-10-05T19:39:40.225Z,37.81331
2022-10-05T19:44:41.687Z,37.97838
2022-10-05T19:49:43.565Z,39.38575
2022-10-05T19:54:45.257Z,39.61482
2022-10-05T19:59:46.889Z,39.66864
2022-10-05T20:04:48.492Z,40.65595
2022-10-05T20:09:50.397Z,41.88885
2022-10-05T20:14:54.994Z,42.64757
2022-10-05T20:19:59.071Z,44.08051
2022-10-05T20:25:00.485Z,44.06594
2022-10-05T20:30:02.124Z,44.42389
2022-10-05T20:35:03.628Z,45.21097
2022-10-05T20:40:05.408Z,45.6535
2022-10-05T20:45:06.857Z,45.91493
2022-10-05T20:50:08.516Z,45.7193
2022-10-05T20:55:10.044Z,46.32948
2022-10-05T21:00:11.963Z,45.91636
2022-10-05T21:05:13.758Z,45.04346
2022-10-05T21:10:15.564Z,44.45412
2022-10-05T21:15:17.420Z,45.50683
2022-10-05T21:20:19.362Z,45.78928
2022-10-05T21:25:21.124Z,45.32667
2022-10-05T21:30:23.011Z,44.82084
2022-10-05T21:35:24.962Z,45.06122
2022-10-05T21:40:26.691Z,43.8435
2022-10-05T21:45:28.479Z,42.9182
2022-10-05T21:50:30.314Z,43.0876
2022-10-05T21:55:31.873Z,42.11236
2022-10-05T22:00:33.569Z,41.73349
2022-10-05T22:05:35.488Z,41.42035
2022-10-05T22:10:37.269Z,41.61307
2022-10-05T22:15:39.088Z,42.18537
2022-10-05T22:20:40.991Z,41.29577
2022-10-05T22:25:42.724Z,40.67718
2022-10-05T22:30:44.494Z,41.10856
2022-10-05T22:35:46.549Z,40.46035
2022-10-05T22:40:48.212Z,40.98087
2022-10-05T22:45:49.978Z,40.31201
2022-10-05T22:50:51.736Z,42.12304
2022-10-05T22:55:53.459Z,41.75291
2022-10-05T23:00:58.536Z,43.13544
2022-10-05T23:06:00.456Z,43.15144
2022-10-05T23:11:01.890Z,44.35232
2022-10-05T23:16:03.548Z,43.89714
2022-10-05T23:21:06.286Z,43.71821
2022-10-05T23:26:07.928Z,43.93019
2022-10-05T23:31:09.683Z,44.27508
2022-10-05T23:36:11.497Z,44.34825
2022-10-05T23:41:13.255Z,44.9672
2022-10-05T23:46:15.132Z,44.88495
2022-10-05T23:51:17.182Z,45.43962
2022-10-05T23:56:18.946Z,45.99232
